Time;durP1;ratioP1;P1;durP2;ratioP2;P2;SDS_P1;SDS_P2;PMS_P1;PMS_P2;Temp;Humidity;BMP_temperature;BMP_pressure;BME280_temperature;BME280_humidity;BME280_pressure;Samples;Min_cycle;Max_cycle;Signal;HPM_P1;HPM_P2
2023/04/21 00:02:21;;;;;;;9.30;3.55;;;;;;;4.68;55.49;100470.77;1696576;82;21031;-68
2023/04/21 00:04:48;;;;;;;8.35;3.60;;;;;;;4.64;55.59;100476.84;1696641;83;20995;-68
2023/04/21 00:07:14;;;;;;;8.20;3.47;;;;;;;4.62;55.78;100474.73;1703249;82;21004;-68
2023/04/21 00:09:42;;;;;;;10.32;3.20;;;;;;;4.61;55.80;100465.23;1700580;82;21059;-68
2023/04/21 00:12:08;;;;;;;6.60;3.27;;;;;;;4.57;55.88;100463.56;1690319;84;21027;-69
2023/04/21 00:14:34;;;;;;;6.17;4.13;;;;;;;4.56;55.96;100463.56;1755173;80;21015;-68
2023/04/21 00:17:01;;;;;;;6.42;3.50;;;;;;;4.43;56.14;100446.05;1753448;80;21500;-68
2023/04/21 00:19:28;;;;;;;8.75;4.42;;;;;;;4.57;56.13;100462.27;1750752;80;21497;-68
2023/04/21 00:21:57;;;;;;;;;;;;;;;4.58;56.18;100460.09;1749721;80;20990;-69
2023/04/21 00:24:22;;;;;;;9.33;3.62;;;;;;;4.57;56.67;100455.80;1753502;80;20152;-68
2023/04/21 00:26:48;;;;;;;6.97;3.40;;;;;;;4.58;56.41;100466.56;1754249;80;21603;-69
2023/04/21 00:29:15;;;;;;;6.17;2.92;;;;;;;4.57;56.41;100455.80;1755750;80;21473;-68
2023/04/21 00:31:41;;;;;;;9.08;3.50;;;;;;;4.59;56.62;100456.63;1755787;80;21541;-68
2023/04/21 00:34:08;;;;;;;7.53;3.50;;;;;;;4.62;56.61;100456.63;1753160;80;20974;-68
2023/04/21 00:36:34;;;;;;;5.97;3.60;;;;;;;4.62;56.70;100454.03;1752504;79;21006;-68
2023/04/21 00:39:01;;;;;;;8.13;3.05;;;;;;;4.64;56.93;100460.02;1707354;82;21010;-69
2023/04/21 00:41:29;;;;;;;8.83;3.25;;;;;;;4.68;56.80;100459.58;1713788;82;20988;-68
2023/04/21 00:44:03;;;;;;;6.80;2.75;;;;;;;4.71;57.21;100461.68;1714360;82;21461;-68
2023/04/21 00:46:30;;;;;;;8.20;3.10;;;;;;;4.77;56.95;100459.91;1713605;82;21603;-69
2023/04/21 00:48:57;;;;;;;7.00;3.80;;;;;;;4.84;56.96;100464.11;1710807;82;20966;-69
2023/04/21 00:51:25;;;;;;;8.15;3.52;;;;;;;4.91;57.32;100460.59;1708503;83;21024;-69
2023/04/21 00:53:51;;;;;;;;;;;;;;;4.94;57.07;100464.43;1715778;82;20946;-69
2023/04/21 00:56:18;;;;;;;4.97;3.27;;;;;;;5.00;57.40;100459.17;1713938;82;20171;-68
2023/04/21 00:58:45;;;;;;;7.97;3.75;;;;;;;5.07;57.04;100457.34;1714135;82;21023;-68
2023/04/21 01:01:13;;;;;;;6.40;2.80;;;;;;;5.11;57.17;100452.12;1715546;82;21592;-69
2023/04/21 01:03:39;;;;;;;8.18;4.05;;;;;;;5.13;57.06;100454.27;1712303;82;21430;-69
2023/04/21 01:06:07;;;;;;;8.23;4.08;;;;;;;5.14;57.16;100445.61;1715675;82;21530;-69
2023/04/21 01:08:34;;;;;;;5.78;3.20;;;;;;;5.23;57.33;100445.92;1714311;82;20916;-69
2023/04/21 01:11:02;;;;;;;8.00;3.98;;;;;;;5.38;57.41;100448.75;1686586;83;21010;-69
2023/04/21 01:13:29;;;;;;;12.98;4.37;;;;;;;5.47;57.23;100438.25;1694769;83;21035;-69
2023/04/21 01:15:55;;;;;;;13.47;3.87;;;;;;;5.57;57.35;100446.72;1759715;80;20978;-68
2023/04/21 01:18:22;;;;;;;9.48;3.75;;;;;;;5.69;57.33;100437.93;1758950;80;21012;-68
2023/04/21 01:20:48;;;;;;;9.50;3.72;;;;;;;5.78;57.39;100443.80;1718617;82;20931;-68
2023/04/21 01:23:17;;;;;;;8.05;3.67;;;;;;;5.90;57.28;100440.16;1749654;80;21149;-68
2023/04/21 01:25:43;;;;;;;9.13;3.90;;;;;;;6.02;57.62;100441.70;1759907;79;21589;-68
2023/04/21 01:28:09;;;;;;;15.68;3.62;;;;;;;6.12;57.28;100437.23;1756899;80;21851;-68
2023/04/21 01:30:36;;;;;;;7.78;3.75;;;;;;;6.20;57.31;100432.77;1716411;82;21556;-69
2023/04/21 01:33:02;;;;;;;7.00;3.95;;;;;;;6.30;57.38;100430.41;1752597;80;20997;-68
2023/04/21 01:35:29;;;;;;;12.53;3.45;;;;;;;6.40;57.41;100428.06;1756863;80;21055;-69
2023/04/21 01:37:55;;;;;;;8.85;3.50;;;;;;;6.46;57.28;100434.42;1753615;80;21008;-69
2023/04/21 01:40:21;;;;;;;4.83;3.85;;;;;;;6.52;57.42;100433.91;1752777;80;20974;-68
2023/04/21 01:42:48;;;;;;;9.20;3.80;;;;;;;6.58;57.38;100432.48;1757260;80;20922;-68
2023/04/21 01:45:14;;;;;;;8.78;4.42;;;;;;;6.64;57.30;100431.09;1763239;80;21576;-69
2023/04/21 01:47:41;;;;;;;8.53;3.55;;;;;;;6.69;57.38;100429.23;1756849;80;21426;-69
2023/04/21 01:50:08;;;;;;;13.20;3.47;;;;;;;6.74;57.30;100424.81;1760874;80;21089;-69
2023/04/21 01:52:35;;;;;;;9.88;4.20;;;;;;;6.79;57.31;100424.73;1758429;80;20910;-69
2023/04/21 01:55:01;;;;;;;8.55;3.80;;;;;;;6.86;57.47;100415.91;1753435;80;21090;-68
2023/04/21 01:57:27;;;;;;;8.13;4.17;;;;;;;6.88;57.39;100420.19;1758411;80;20924;-68
2023/04/21 01:59:54;;;;;;;6.67;3.67;;;;;;;6.91;57.39;100421.41;1767213;80;21009;-69
2023/04/21 02:02:20;;;;;;;9.75;3.42;;;;;;;6.94;57.33;100420.05;1718900;82;20994;-68
2023/04/21 02:04:47;;;;;;;5.33;3.80;;;;;;;6.99;57.31;100415.22;1760843;79;21077;-68
2023/04/21 02:07:13;;;;;;;8.90;3.75;;;;;;;7.03;57.27;100414.25;1762802;80;20908;-68
2023/04/21 02:09:40;;;;;;;10.13;4.30;;;;;;;7.02;57.28;100416.45;1759649;80;21090;-67
2023/04/21 02:12:07;;;;;;;8.95;3.27;;;;;;;7.03;57.31;100411.66;1746964;80;21132;-69
2023/04/21 02:14:35;;;;;;;12.15;4.03;;;;;;;7.02;57.21;100416.45;1715506;81;21527;-69
2023/04/21 02:17:02;;;;;;;9.00;4.25;;;;;;;6.98;57.18;100417.42;1720140;82;20960;-68
2023/04/21 02:19:29;;;;;;;11.18;3.83;;;;;;;6.95;57.27;100412.69;1717644;81;20996;-69
2023/04/21 02:21:55;;;;;;;4.70;3.15;;;;;;;6.93;57.19;100422.70;1723668;81;21016;-68
2023/04/21 02:24:22;;;;;;;7.60;3.52;;;;;;;6.83;57.06;100415.97;1716186;81;20963;-68
2023/04/21 02:26:48;;;;;;;7.15;3.42;;;;;;;6.59;57.09;100425.12;1713412;81;20996;-69
2023/04/21 02:29:15;;;;;;;5.90;3.58;;;;;;;6.53;57.36;100420.06;1722097;81;21104;-68
2023/04/21 02:31:41;;;;;;;6.58;3.67;;;;;;;6.47;57.48;100418.00;1713650;81;21110;-69
2023/04/21 02:34:07;;;;;;;6.58;3.60;;;;;;;6.39;57.65;100417.29;1718017;81;20997;-68
2023/04/21 02:36:33;;;;;;;6.55;3.08;;;;;;;6.29;57.51;100417.03;1718230;81;21031;-69
2023/04/21 02:39:00;;;;;;;10.08;3.60;;;;;;;6.26;57.57;100413.20;1723130;81;20964;-68
2023/04/21 02:41:26;;;;;;;6.42;3.90;;;;;;;6.23;57.59;100414.56;1713480;81;21511;-68
2023/04/21 02:43:52;;;;;;;10.43;4.28;;;;;;;6.20;57.59;100412.03;1713878;81;20969;-68
2023/04/21 02:46:19;;;;;;;10.30;3.72;;;;;;;6.18;57.58;100411.19;1712848;81;21140;-68
2023/04/21 02:48:45;;;;;;;12.68;4.40;;;;;;;6.09;57.52;100421.73;1714733;81;20988;-69
2023/04/21 02:51:12;;;;;;;7.85;4.00;;;;;;;6.01;57.61;100420.12;1713539;81;21600;-69
2023/04/21 02:53:39;;;;;;;12.05;3.55;;;;;;;5.91;57.62;100422.45;1682198;83;21078;-69
2023/04/21 02:56:07;;;;;;;8.15;3.95;;;;;;;5.83;57.80;100421.27;1677568;83;20955;-68
2023/04/21 02:58:35;;;;;;;10.78;3.58;;;;;;;5.80;57.81;100421.77;1683209;83;20969;-69
2023/04/21 03:01:02;;;;;;;5.42;3.45;;;;;;;5.78;57.83;100414.45;1681803;83;21028;-69
2023/04/21 03:03:30;;;;;;;7.35;4.35;;;;;;;5.76;57.94;100420.09;1718789;81;21553;-68
2023/04/21 03:06:00;;;;;;;6.25;3.90;;;;;;;5.72;57.82;100413.27;1718603;81;21065;-68
2023/04/21 03:08:26;;;;;;;7.72;3.58;;;;;;;5.63;57.86;100409.50;1715330;81;20954;-68
2023/04/21 03:10:53;;;;;;;6.50;3.33;;;;;;;5.58;58.01;100414.33;1675548;83;21061;-68
2023/04/21 03:13:19;;;;;;;11.18;3.83;;;;;;;5.51;57.94;100407.52;1685073;83;21036;-69
2023/04/21 03:15:48;;;;;;;8.00;3.47;;;;;;;5.44;57.92;100422.75;1671336;84;20991;-68
2023/04/21 03:18:14;;;;;;;8.50;3.90;;;;;;;5.31;57.97;100406.98;1712525;82;21002;-68
2023/04/21 03:20:41;;;;;;;5.25;3.33;;;;;;;5.19;58.08;100404.58;1712425;82;20993;-68
2023/04/21 03:23:07;;;;;;;8.43;3.83;;;;;;;5.13;58.24;100406.37;1713981;83;20994;-68
2023/04/21 03:25:33;;;;;;;7.67;3.52;;;;;;;5.15;58.24;100402.03;1715527;82;21452;-69
2023/04/21 03:27:59;;;;;;;28.35;5.65;;;;;;;5.12;58.37;100396.87;1716412;81;21542;-69
2023/04/21 03:30:26;;;;;;;43.13;6.28;;;;;;;5.13;58.46;100392.13;1717039;82;20960;-69
2023/04/21 03:32:54;;;;;;;25.57;6.00;;;;;;;5.07;58.34;100399.98;1716431;80;21035;-68
2023/04/21 03:35:21;;;;;;;30.27;4.50;;;;;;;4.95;58.39;100394.96;1713115;82;20964;-69
2023/04/21 03:37:50;;;;;;;16.75;5.28;;;;;;;4.91;58.63;100399.77;1716347;81;21091;-68
2023/04/21 03:40:16;;;;;;;8.65;4.00;;;;;;;4.79;58.45;100398.62;1711658;81;20980;-69
2023/04/21 03:42:43;;;;;;;9.80;4.58;;;;;;;4.66;58.60;100389.73;1711253;81;21034;-69
2023/04/21 03:45:10;;;;;;;10.50;4.40;;;;;;;4.59;58.73;100397.13;1720241;80;20964;-69
2023/04/21 03:47:36;;;;;;;11.43;3.87;;;;;;;4.53;58.84;100394.62;1714107;82;20978;-69
2023/04/21 03:50:04;;;;;;;6.30;3.67;;;;;;;4.53;59.00;100397.22;1718979;82;21057;-69
2023/04/21 03:52:31;;;;;;;6.85;3.33;;;;;;;4.54;59.11;100404.12;1716266;82;21451;-69
2023/04/21 03:54:58;;;;;;;8.35;3.40;;;;;;;4.55;59.15;100398.50;1713519;82;20964;-69
2023/04/21 03:57:24;;;;;;;7.65;3.85;;;;;;;4.61;59.27;100403.16;1683979;83;21036;-70
2023/04/21 03:59:50;;;;;;;7.37;3.37;;;;;;;4.61;59.29;100410.91;1714066;83;21076;-69
2023/04/21 04:02:17;;;;;;;10.95;3.95;;;;;;;4.63;59.35;100404.00;1712477;82;21507;-70
2023/04/21 04:04:43;;;;;;;10.72;4.22;;;;;;;4.73;59.59;100403.88;1715719;82;21027;-69
2023/04/21 04:07:09;;;;;;;11.10;3.98;;;;;;;4.85;59.64;100401.16;1715798;81;20948;-69
2023/04/21 04:09:36;;;;;;;15.15;4.62;;;;;;;4.84;59.23;100400.72;1712172;82;20966;-69
2023/04/21 04:12:02;;;;;;;9.65;3.85;;;;;;;4.76;59.45;100409.02;1711863;82;21050;-69
2023/04/21 04:14:29;;;;;;;6.83;3.50;;;;;;;4.83;59.67;100402.90;1714113;82;21117;-69
2023/04/21 04:16:57;;;;;;;10.28;3.50;;;;;;;4.92;59.92;100406.20;1718884;82;21007;-68
2023/04/21 04:19:31;;;;;;;6.78;3.72;;;;;;;5.06;60.11;100407.31;1718731;82;21042;-69
2023/04/21 04:21:59;;;;;;;5.15;3.33;;;;;;;5.25;60.11;100404.03;1684527;82;21525;-69
2023/04/21 04:24:26;;;;;;;4.55;3.45;;;;;;;5.41;60.12;100407.27;1698904;83;20978;-69
2023/04/21 04:26:56;;;;;;;10.13;3.67;;;;;;;5.56;60.15;100404.42;1723360;82;21415;-68
2023/04/21 04:29:23;;;;;;;9.28;4.20;;;;;;;5.72;60.11;100404.20;1719028;82;20986;-68
2023/04/21 04:31:50;;;;;;;6.35;3.30;;;;;;;5.82;60.19;100404.02;1753901;80;21077;-69
2023/04/21 04:34:17;;;;;;;9.50;4.08;;;;;;;5.90;60.29;100409.05;1757692;80;21022;-69
2023/04/21 04:36:44;;;;;;;6.42;3.60;;;;;;;6.02;60.35;100408.89;1753742;80;21031;-67
2023/04/21 04:39:11;;;;;;;5.35;3.30;;;;;;;6.16;60.46;100409.06;1751141;80;21034;-69
2023/04/21 04:41:40;;;;;;;10.23;4.25;;;;;;;6.25;60.58;100416.69;1753384;80;20986;-69
2023/04/21 04:44:07;;;;;;;9.93;4.42;;;;;;;6.34;60.62;100412.63;1746777;80;21077;-68
2023/04/21 04:46:34;;;;;;;9.15;4.33;;;;;;;6.54;60.70;100419.17;1749690;80;21473;-69
2023/04/21 04:51:45;;;;;;;8.08;4.17;;;;;;;6.93;60.71;100414.45;1738630;80;21077;-68
2023/04/21 04:54:11;;;;;;;7.58;3.98;;;;;;;7.15;60.79;100415.30;1752895;80;21077;-69
2023/04/21 04:59:59;;;;;;;10.55;4.22;;;;;;;7.46;60.76;100409.41;1661192;84;21085;-70
2023/04/21 05:02:28;;;;;;;7.17;4.35;;;;;;;7.66;60.69;100404.58;1662799;84;21050;-70
2023/04/21 05:04:58;;;;;;;6.15;3.70;;;;;;;7.82;60.69;100411.11;1662393;84;20967;-70
2023/04/21 05:07:29;;;;;;;11.40;5.28;;;;;;;8.03;60.72;100409.70;1645730;84;21109;-70
2023/04/21 05:09:55;;;;;;;8.43;4.37;;;;;;;8.18;60.77;100403.27;1662951;84;21089;-68
2023/04/21 05:12:22;;;;;;;11.80;4.92;;;;;;;8.32;60.84;100404.62;1662037;84;21010;-66
2023/04/21 05:14:48;;;;;;;12.30;5.90;;;;;;;8.40;60.86;100405.30;1654944;85;21071;-65
2023/04/21 05:17:19;;;;;;;11.33;6.20;;;;;;;8.55;60.80;100402.29;1659811;85;21050;-65
2023/04/21 05:19:42;;;;;;;12.95;5.50;;;;;;;8.69;60.75;100404.05;1653610;85;21513;-65
2023/04/21 05:22:09;;;;;;;10.98;4.20;;;;;;;8.84;60.58;100397.98;1655509;85;20943;-67
2023/04/21 05:24:36;;;;;;;13.13;3.90;;;;;;;8.96;60.65;100403.70;1655011;84;20983;-63
2023/04/21 05:27:05;;;;;;;10.13;4.20;;;;;;;9.12;60.61;100396.27;1655921;84;21525;-63
2023/04/21 05:29:34;;;;;;;13.98;4.00;;;;;;;9.32;60.55;100402.61;1656322;85;20975;-60
2023/04/21 05:32:00;;;;;;;9.30;4.40;;;;;;;9.48;60.62;100401.23;1657077;85;20975;-62
2023/04/21 05:34:31;;;;;;;9.33;4.20;;;;;;;9.63;60.57;100400.75;1724160;79;21449;-63
2023/04/21 05:36:54;;;;;;;8.85;5.42;;;;;;;9.79;60.40;100402.84;1757770;80;21052;-62
2023/04/21 05:39:21;;;;;;;9.45;4.45;;;;;;;9.99;60.43;100397.80;1761467;80;21948;-61
2023/04/21 05:41:47;;;;;;;10.50;4.40;;;;;;;10.15;60.37;100397.30;1745391;80;20971;-61
2023/04/21 05:44:17;;;;;;;6.95;3.12;;;;;;;10.32;60.24;100401.49;1746606;80;21020;-61
2023/04/21 05:46:49;;;;;;;12.20;4.20;;;;;;;10.45;60.10;100401.47;1755153;80;21011;-62
2023/04/21 05:49:20;;;;;;;6.55;3.75;;;;;;;10.58;59.76;100406.23;1710508;80;20970;-66
2023/04/21 05:51:47;;;;;;;9.68;4.70;;;;;;;10.52;59.72;100404.23;1767188;80;21017;-65
2023/04/21 05:54:13;;;;;;;6.37;3.80;;;;;;;10.52;59.74;100404.23;1756910;80;21412;-65
2023/04/21 05:56:40;;;;;;;7.75;4.10;;;;;;;10.68;59.78;100399.77;1761253;80;20955;-63
2023/04/21 05:59:07;;;;;;;8.38;3.60;;;;;;;10.82;59.91;100392.27;1741840;80;21030;-63
2023/04/21 06:01:33;;;;;;;;;;;;;;;11.03;59.79;100400.20;1761471;79;21142;-65
2023/04/21 06:04:06;;;;;;;5.67;3.50;;;;;;;11.26;59.29;100400.18;1751229;80;20109;-62
2023/04/21 06:06:45;;;;;;;5.37;2.90;;;;;;;11.32;59.22;100392.09;1757731;80;20997;-63
2023/04/21 06:09:14;;;;;;;15.40;3.02;;;;;;;11.48;59.16;100391.45;1754927;80;20990;-64
2023/04/21 06:11:49;;;;;;;5.72;2.52;;;;;;;12.14;59.33;100381.75;1676500;84;21581;-64
2023/04/21 06:14:18;;;;;;;5.35;2.80;;;;;;;12.14;59.33;100381.75;1674974;83;21014;-64
2023/04/21 06:16:44;;;;;;;4.67;2.60;;;;;;;12.18;58.50;100391.16;1672493;85;20940;-63
2023/04/21 06:19:12;;;;;;;5.87;2.75;;;;;;;12.37;58.96;100382.05;1674119;83;21750;-65
2023/04/21 06:21:39;;;;;;;4.30;3.10;;;;;;;12.62;58.58;100367.40;1676316;83;20993;-63
2023/04/21 06:24:08;;;;;;;7.35;3.70;;;;;;;13.02;58.70;100376.03;1670853;85;21613;-64
2023/04/21 06:26:39;;;;;;;3.62;2.67;;;;;;;13.23;58.42;100374.66;1687048;83;21073;-63
2023/04/21 06:29:07;;;;;;;6.08;2.90;;;;;;;13.51;58.16;100368.48;1678607;83;21034;-64
2023/04/21 06:31:34;;;;;;;6.70;2.35;;;;;;;13.65;57.82;100366.02;1676797;83;21083;-64
2023/04/21 06:34:03;;;;;;;5.72;2.55;;;;;;;13.85;57.91;100372.05;1674604;83;21602;-63
2023/04/21 06:36:32;;;;;;;7.37;2.37;;;;;;;13.92;57.42;100365.58;1678234;83;20998;-64
2023/04/21 06:39:17;;;;;;;133.82;18.42;;;;;;;13.99;57.59;100366.10;1677353;83;21021;-64
2023/04/21 06:41:31;;;;;;;7.67;3.00;;;;;;;14.12;57.35;100361.92;1671741;83;21120;-64
2023/04/21 06:44:04;;;;;;;6.40;2.27;;;;;;;14.43;57.20;100370.83;1674098;83;21191;-63
2023/04/21 06:46:33;;;;;;;56.33;8.98;;;;;;;14.54;56.72;100362.78;1678172;83;20969;-65
2023/04/21 06:48:58;;;;;;;8.83;2.83;;;;;;;14.55;56.68;100367.10;1676870;84;21079;-64
2023/04/21 06:51:24;;;;;;;5.33;2.02;;;;;;;14.90;56.77;100365.67;1675343;83;21663;-64
2023/04/21 06:53:51;;;;;;;3.62;2.27;;;;;;;15.20;56.73;100363.09;1678008;83;21001;-64
2023/04/21 06:56:21;;;;;;;4.35;2.10;;;;;;;15.60;56.30;100365.23;1678608;83;21233;-65
2023/04/21 06:58:48;;;;;;;3.83;1.82;;;;;;;16.02;55.90;100357.97;1672385;83;21003;-65
2023/04/21 07:01:16;;;;;;;2.45;1.95;;;;;;;16.50;55.97;100353.77;1679733;83;20995;-66
2023/04/21 07:03:42;;;;;;;5.12;1.80;;;;;;;16.91;55.62;100360.41;1672525;83;21095;-64
2023/04/21 07:06:11;;;;;;;3.45;2.08;;;;;;;17.32;54.51;100357.39;1678388;83;21008;-63
2023/04/21 07:08:38;;;;;;;3.40;2.12;;;;;;;17.66;53.88;100356.00;1676314;83;20990;-68
2023/04/21 07:11:04;;;;;;;6.55;1.70;;;;;;;18.01;54.64;100356.31;1685050;83;21164;-64
2023/04/21 07:13:33;;;;;;;3.90;1.87;;;;;;;18.37;54.46;100359.99;1686029;80;21042;-63
2023/04/21 07:16:01;;;;;;;6.28;1.98;;;;;;;18.85;54.25;100354.02;1751690;80;21066;-63
2023/04/21 07:18:33;;;;;;;7.72;2.10;;;;;;;19.32;53.78;100353.22;1751780;80;21098;-62
2023/04/21 07:21:00;;;;;;;6.90;2.02;;;;;;;20.09;53.54;100352.79;1751870;80;21521;-63
2023/04/21 07:23:27;;;;;;;6.10;2.42;;;;;;;20.79;53.25;100344.63;1710875;82;20974;-66
2023/04/21 07:25:53;;;;;;;4.67;2.07;;;;;;;21.48;53.06;100348.78;1682828;83;21030;-63
2023/04/21 07:28:19;;;;;;;4.00;2.10;;;;;;;22.08;52.71;100346.42;1684661;83;21138;-64
2023/04/21 07:30:47;;;;;;;5.75;1.85;;;;;;;22.71;51.44;100351.16;1687286;83;21021;-64
2023/04/21 07:33:15;;;;;;;7.95;2.20;;;;;;;23.35;52.00;100352.55;1710780;83;21011;-65
2023/04/21 07:35:46;;;;;;;6.35;1.72;;;;;;;24.07;50.43;100341.08;1713485;82;21560;-63
2023/04/21 07:38:12;;;;;;;8.28;1.87;;;;;;;24.41;50.49;100343.21;1711973;82;21122;-63
2023/04/21 07:40:45;;;;;;;4.83;2.52;;;;;;;24.90;49.92;100345.16;1690392;83;21036;-63
2023/04/21 07:43:13;;;;;;;7.58;2.17;;;;;;;25.48;49.38;100339.42;1708954;83;21074;-63
2023/04/21 07:45:40;;;;;;;5.55;2.15;;;;;;;26.37;49.29;100345.09;1709691;82;21575;-64
2023/04/21 07:51:46;;;;;;;3.33;1.65;;;;;;;28.36;48.61;100333.96;1646557;85;21087;-63
2023/04/21 07:54:12;;;;;;;6.60;2.30;;;;;;;29.41;47.60;100331.25;1653806;85;21155;-64
2023/04/21 07:57:01;;;;;;;5.62;2.30;;;;;;;29.84;46.54;100337.47;1651012;85;21269;-62
2023/04/21 07:59:38;;;;;;;10.55;3.00;;;;;;;30.51;45.94;100325.30;1621299;86;21064;-62
2023/04/21 08:02:19;;;;;;;5.10;2.42;;;;;;;31.65;44.88;100330.09;1566226;89;21075;-62
2023/04/21 08:08:34;;;;;;;7.00;2.50;;;;;;;32.96;42.54;100310.73;1558761;90;21088;-61
2023/04/21 08:11:14;;;;;;;6.78;2.20;;;;;;;33.30;40.66;100317.59;1559402;89;21000;-61
2023/04/21 08:16:23;;;;;;;9.40;2.55;;;;;;;34.14;38.17;100313.42;1460397;97;21175;-63
2023/04/21 08:18:50;;;;;;;7.35;2.75;;;;;;;33.61;36.70;100319.70;1459341;97;21125;-61
2023/04/21 08:21:17;;;;;;;6.90;1.75;;;;;;;32.90;35.83;100320.20;1463272;95;21094;-61
2023/04/21 08:24:03;;;;;;;7.97;2.00;;;;;;;33.74;35.77;100321.59;1456835;94;21130;-61
2023/04/21 08:26:58;;;;;;;;;;;;;;;;;;;;;
2023/04/21 08:29:48;;;;;;;;;;;;;;;;;;;;;
2023/04/21 08:32:43;;;;;;;5.25;1.65;;;;;;;28.57;30.76;100330.23;1401996;101;21536;-62
2023/04/21 08:35:23;;;;;;;3.30;1.50;;;;;;;26.72;28.96;100316.47;1400473;99;21214;-61
2023/04/21 08:38:25;;;;;;;;;;;;;;;;;;;;;
2023/04/21 08:43:52;;;;;;;4.72;2.00;;;;;;;27.22;29.24;100314.27;1336899;104;21234;-62
2023/04/21 08:46:37;;;;;;;7.42;1.67;;;;;;;26.46;28.16;100317.34;1305540;107;21722;-61
2023/04/21 08:49:17;;;;;;;6.15;1.92;;;;;;;27.56;29.32;100314.61;1304239;107;21243;-63
2023/04/21 08:52:21;;;;;;;2.67;1.70;;;;;;;29.68;28.92;100306.67;1321077;106;21203;-62
2023/04/21 08:55:35;;;;;;;8.05;1.90;;;;;;;31.14;28.88;100300.52;1273746;110;21145;-62
2023/04/21 08:58:05;;;;;;;6.95;1.67;;;;;;;32.25;28.13;100301.63;1276403;111;21172;-61
2023/04/21 09:02:01;;;;;;;4.30;1.60;;;;;;;29.84;27.06;100303.82;1267887;111;21637;-62
2023/04/21 09:04:58;;;;;;;;;;;;;;;;;;;;;
2023/04/21 09:08:15;;;;;;;5.85;1.85;;;;;;;26.87;24.94;100316.70;1250665;113;21162;-62
2023/04/21 09:11:29;;;;;;;3.30;1.57;;;;;;;26.50;25.07;100301.34;1251683;111;21224;-62
2023/04/21 09:14:01;;;;;;;4.17;1.90;;;;;;;27.50;25.15;100296.52;1264004;111;21221;-61
2023/04/21 09:17:08;;;;;;;5.25;2.05;;;;;;;27.24;24.25;100300.20;1251090;112;21217;-63
2023/04/21 09:19:36;;;;;;;9.25;1.67;;;;;;;27.45;24.27;100289.83;1300374;108;21693;-62
2023/04/21 09:22:03;;;;;;;7.30;1.98;;;;;;;28.83;25.23;100291.47;1337859;105;21160;-62
2023/04/21 09:25:27;;;;;;;7.35;1.60;;;;;;;30.37;25.43;100289.78;1335019;105;21104;-61
2023/04/21 09:30:47;;;;;;;5.97;1.72;;;;;;;29.21;23.72;100287.87;1314921;106;21158;-62
2023/04/21 09:33:17;;;;;;;3.20;1.67;;;;;;;28.86;23.68;100292.45;1337604;107;21667;-61
2023/04/21 09:35:44;;;;;;;8.48;1.80;;;;;;;28.37;22.81;100293.48;1340292;106;21228;-61
2023/04/21 09:38:28;;;;;;;6.28;1.62;;;;;;;28.28;22.84;100290.52;1337933;107;21139;-62
2023/04/21 09:46:31;;;;;;;4.90;1.90;;;;;;;27.73;22.26;100286.78;1437146;97;21758;-59
2023/04/21 09:49:23;;;;;;;3.92;1.77;;;;;;;26.98;22.15;100292.27;1468874;93;21147;-60
2023/04/21 09:52:02;;;;;;;6.45;1.75;;;;;;;26.54;21.80;100287.96;1466485;94;21156;-61
2023/04/21 09:54:35;;;;;;;6.78;2.08;;;;;;;25.70;21.84;100285.13;1482590;93;21051;-61
2023/04/21 09:57:30;;;;;;;5.60;1.40;;;;;;;25.82;21.87;100278.51;1472431;94;21207;-61
2023/04/21 10:00:27;;;;;;;3.58;1.70;;;;;;;25.92;22.06;100280.62;1452935;97;21604;-60
2023/04/21 10:05:52;;;;;;;5.47;2.35;;;;;;;26.51;21.54;100289.62;1380430;102;21161;-62
2023/04/21 10:08:43;;;;;;;5.17;1.98;;;;;;;26.43;21.82;100280.19;1361994;99;21326;-60
2023/04/21 10:11:30;;;;;;;2.58;1.50;;;;;;;26.39;21.45;100285.55;1387501;100;21159;-63
2023/04/21 10:14:01;;;;;;;4.55;1.65;;;;;;;26.42;22.03;100281.20;1360020;102;21700;-61
2023/04/21 10:16:25;;;;;;;2.90;1.77;;;;;;;26.36;21.40;100278.34;1407248;99;21083;-62
2023/04/21 10:18:52;;;;;;;4.20;1.90;;;;;;;25.40;20.93;100279.20;1402385;99;21152;-62
2023/04/21 10:21:20;;;;;;;2.47;1.80;;;;;;;25.16;21.70;100275.34;1405745;101;21107;-60
2023/04/21 11:07:50;;;;;;;3.22;1.60;;;;;;;28.72;20.24;100229.05;1821844;77;28640;-72
2023/04/21 11:10:17;;;;;;;6.10;1.50;;;;;;;28.54;20.24;100239.25;1797877;78;21059;-72
2023/04/21 11:12:45;;;;;;;6.10;1.70;;;;;;;27.97;19.64;100235.43;1759143;79;21437;-74
2023/04/21 11:15:14;;;;;;;5.42;2.12;;;;;;;27.22;20.00;100240.55;1762860;79;22292;-76
2023/04/21 11:17:46;;;;;;;3.90;1.60;;;;;;;27.07;20.24;100234.16;1742744;81;21061;-73
2023/04/21 11:20:12;;;;;;;3.05;1.47;;;;;;;27.15;19.89;100238.19;1789963;78;21052;-75
2023/04/21 11:22:38;;;;;;;5.60;1.80;;;;;;;26.56;19.75;100236.42;1789382;78;21042;-74
2023/04/21 11:25:07;;;;;;;8.03;2.52;;;;;;;25.68;19.78;100235.32;1789641;78;21132;-73
2023/04/21 11:27:36;;;;;;;6.37;1.62;;;;;;;24.79;19.73;100236.73;1790566;79;20986;-72
2023/04/21 11:30:03;;;;;;;4.10;2.08;;;;;;;24.79;20.23;100225.55;1788562;78;21018;-74
2023/04/21 11:32:29;;;;;;;9.60;2.40;;;;;;;25.08;20.47;100231.16;1792374;78;21041;-74
2023/04/21 11:34:56;;;;;;;4.33;1.90;;;;;;;25.11;20.35;100232.17;1794328;78;21088;-73
2023/04/21 11:37:28;;;;;;;3.05;1.70;;;;;;;24.24;20.27;100216.24;1796949;78;21032;-73
2023/04/21 11:39:59;;;;;;;8.28;2.02;;;;;;;24.23;21.11;100223.91;1808517;78;21030;-73
2023/04/21 11:42:26;;;;;;;5.00;1.82;;;;;;;24.65;20.64;100223.41;1806557;78;20986;-74
2023/04/21 11:44:56;;;;;;;4.78;1.85;;;;;;;24.15;20.62;100226.48;1789666;78;20985;-75
2023/04/21 11:47:24;;;;;;;2.58;1.32;;;;;;;23.52;21.20;100231.56;1798889;78;21099;-73
2023/04/21 11:49:59;;;;;;;3.15;1.77;;;;;;;23.43;20.84;100211.45;1801596;78;21456;-75
2023/04/21 11:52:38;;;;;;;3.90;1.70;;;;;;;22.55;21.06;100222.59;1770774;79;21575;-75
2023/04/21 11:55:07;;;;;;;4.50;1.67;;;;;;;21.79;21.18;100215.98;1774686;78;21126;-74
2023/04/21 11:57:35;;;;;;;3.80;1.65;;;;;;;21.51;21.67;100218.38;1780562;79;22327;-74
2023/04/21 12:00:09;;;;;;;3.08;1.45;;;;;;;21.59;21.72;100213.25;1773179;78;21006;-72
2023/04/21 12:02:36;;;;;;;6.35;2.12;;;;;;;21.63;22.09;100215.98;1771324;79;21059;-73
2023/04/21 12:05:04;;;;;;;13.55;1.75;;;;;;;21.27;22.31;100207.13;1779073;79;21674;-73
2023/04/21 12:07:35;;;;;;;4.25;1.45;;;;;;;20.91;22.40;100211.89;1770522;79;21085;-73
2023/04/21 12:10:11;;;;;;;7.62;1.62;;;;;;;20.84;22.58;100221.31;1757677;81;21104;-74
2023/04/21 12:12:38;;;;;;;3.42;1.45;;;;;;;20.84;23.29;100201.41;1751928;81;21492;-73
2023/04/21 12:15:10;;;;;;;4.22;1.57;;;;;;;21.61;23.15;100216.59;1746427;81;21468;-74
2023/04/21 12:17:38;;;;;;;7.22;1.50;;;;;;;21.35;22.89;100194.05;1799629;78;21012;-74
2023/04/21 12:20:06;;;;;;;4.65;1.40;;;;;;;20.34;22.87;100198.75;1798155;78;20962;-72
2023/04/21 12:22:32;;;;;;;6.20;2.05;;;;;;;19.53;23.28;100198.98;1808009;78;21101;-72
2023/04/21 12:24:58;;;;;;;2.72;1.60;;;;;;;19.06;23.62;100200.79;1806447;78;21041;-72
2023/04/21 12:27:26;;;;;;;4.30;1.40;;;;;;;18.42;23.36;100208.50;1801991;78;20962;-73
2023/04/21 12:29:53;;;;;;;2.80;1.65;;;;;;;17.71;23.79;100209.14;1792303;78;21392;-74
2023/04/21 12:32:25;;;;;;;3.87;1.37;;;;;;;17.23;23.74;100198.70;1793797;78;20974;-73
2023/04/21 12:34:48;;;;;;;3.05;1.62;;;;;;;16.69;23.86;100205.79;1789542;78;21024;-72
2023/04/21 12:37:15;;;;;;;3.57;1.77;;;;;;;16.22;23.93;100202.64;1767563;78;21141;-72
2023/04/21 12:39:41;;;;;;;3.22;1.40;;;;;;;15.97;25.19;100205.12;1794849;78;21076;-72
2023/04/21 12:42:08;;;;;;;3.87;1.65;;;;;;;15.88;24.86;100198.63;1796950;78;21633;-72
2023/04/21 12:44:34;;;;;;;2.15;1.57;;;;;;;15.73;26.49;100208.30;1795244;78;21045;-73
2023/04/21 12:47:00;;;;;;;5.92;1.90;;;;;;;15.53;26.03;100200.73;1801066;78;21548;-72
2023/04/21 12:49:27;;;;;;;8.18;1.92;;;;;;;15.38;26.17;100207.30;1789687;78;21380;-73
2023/04/21 12:51:53;;;;;;;2.20;1.67;;;;;;;15.15;25.74;100190.69;1787628;78;21530;-72
2023/04/21 12:54:19;;;;;;;3.00;1.57;;;;;;;14.99;26.18;100191.60;1803447;78;21496;-72
2023/04/21 12:56:47;;;;;;;3.60;1.50;;;;;;;14.91;26.22;100184.62;1795741;78;21018;-73
2023/04/21 12:59:13;;;;;;;1.67;1.50;;;;;;;14.79;26.53;100168.25;1795651;78;21107;-72
2023/04/21 13:01:41;;;;;;;2.92;1.60;;;;;;;14.74;26.67;100181.65;1797147;78;21540;-73